Corwith Cramer — WTF3319 — position and weather

sailwx.info

Track history (hours):
 
Tides and Currents Weather Stations Pressure Air Temp Water Temp Dewpoint Dewpoint Depression Visibility Wind Speed Wind Dir Waves Ship Positions

Oceanographic research ship Corwith Cramer (USA)

Ship's website: http://www.sea.edu/sea2000/AboutSEA2000/cramer.htm

Detailed information on ship capabilities available from University of Delaware's Ocean Information Center.

Owner: SEA EDUCATION ASSOCIATION, WOODS HOLE, MA. More information available from US FCC via Universal Licensing System and Coast Guard Vessel Documentation Center.

Last reported at 2017-Oct-17 10:42 UTC. Time now 2017-Oct-18 09:19 UTC.
Position N 42°14' W 070°31'.

Type: Sailing vessel. MMSI: 366724450.

Date/timePositionNaut miles runAvg speedWind from/ knotsBaromVisibWave heightAir tempDewpointWater temp
2017-Oct-17 10:42N 42°14' W 070°31'1 6.1
2017-Oct-17 10:29N 42°15' W 070°30'3 6.3
2017-Oct-17 09:59N 42°18' W 070°28'3 6.3
2017-Oct-17 09:31N 42°20' W 070°26'4 7.1
2017-Oct-17 09:00N 42°23' W 070°23'4 7.7
2017-Oct-17 08:30N 42°26' W 070°20'4 8.1
2017-Oct-17 08:00N 42°30' W 070°17'4 8.0
2017-Oct-17 07:30N 42°34' W 070°15'4 8.2
2017-Oct-17 07:01N 42°37' W 070°12'4 8.7
2017-Oct-17 06:30N 42°41' W 070°09'86 8.4
2017-Oct-16 20:19N 43°55' W 069°10'2 6.6
2017-Oct-16 19:57N 43°56' W 069°07'3 7.3
2017-Oct-16 19:31N 43°57' W 069°03'4 6.1
2017-Oct-16 18:53N 44°01' W 068°60'2 4.5
2017-Oct-16 18:30N 44°02' W 069°01'3 4.7
2017-Oct-16 17:51N 44°05' W 069°01'2 4.4
2017-Oct-16 17:27N 44°07' W 069°01'2 4.5
2017-Oct-16 17:00N 44°09' W 069°01'4 6.0
2017-Oct-16 16:16N 44°13' W 069°00'  
Track history (hours):
 
Tides and Currents Weather Stations Pressure Air Temp Water Temp Dewpoint Dewpoint Depression Visibility Wind Speed Wind Dir Waves Ship Positions

Oceanographic research ship Corwith Cramer (USA)

Ship's website: http://www.sea.edu/sea2000/AboutSEA2000/cramer.htm

Detailed information on ship capabilities available from University of Delaware's Ocean Information Center.

Owner: SEA EDUCATION ASSOCIATION, WOODS HOLE, MA. More information available from US FCC via Universal Licensing System and Coast Guard Vessel Documentation Center.

Last reported at 2017-Oct-17 10:42 UTC. Time now 2017-Oct-18 09:19 UTC.
Position N 42°14' W 070°31'.

Type: Sailing vessel. MMSI: 366724450.

Date/timePositionNaut miles runAvg speedWind from/ knotsBaromVisibWave heightAir tempDewpointWater temp
2017-Oct-17 10:42N 42°14' W 070°31'1 6.1
2017-Oct-17 10:29N 42°15' W 070°30'3 6.3
2017-Oct-17 09:59N 42°18' W 070°28'3 6.3
2017-Oct-17 09:31N 42°20' W 070°26'4 7.1
2017-Oct-17 09:00N 42°23' W 070°23'4 7.7
2017-Oct-17 08:30N 42°26' W 070°20'4 8.1
2017-Oct-17 08:00N 42°30' W 070°17'4 8.0
2017-Oct-17 07:30N 42°34' W 070°15'4 8.2
2017-Oct-17 07:01N 42°37' W 070°12'4 8.7
2017-Oct-17 06:30N 42°41' W 070°09'86 8.4
2017-Oct-16 20:19N 43°55' W 069°10'2 6.6
2017-Oct-16 19:57N 43°56' W 069°07'3 7.3
2017-Oct-16 19:31N 43°57' W 069°03'4 6.1
2017-Oct-16 18:53N 44°01' W 068°60'2 4.5
2017-Oct-16 18:30N 44°02' W 069°01'3 4.7
2017-Oct-16 17:51N 44°05' W 069°01'2 4.4
2017-Oct-16 17:27N 44°07' W 069°01'2 4.5
2017-Oct-16 17:00N 44°09' W 069°01'4 6.0
2017-Oct-16 16:16N 44°13' W 069°00'  

Dump ship's entire track history